createdAt,value
2022-12-22T00:02:07.218Z,76.80
2022-12-22T00:04:52.711Z,76.85
2022-12-22T00:07:38.136Z,76.82
2022-12-22T00:10:24.146Z,76.96
2022-12-22T00:13:09.349Z,76.96
2022-12-22T00:15:54.790Z,76.72
2022-12-22T00:18:40.187Z,76.84
2022-12-22T00:21:25.546Z,77.02
2022-12-22T00:24:11.203Z,76.82
2022-12-22T00:26:56.526Z,76.77
2022-12-22T00:29:42.068Z,77.00
2022-12-22T00:32:32.712Z,76.92
2022-12-22T00:35:18.622Z,76.86
2022-12-22T00:38:04.276Z,76.83
2022-12-22T00:40:49.864Z,76.89
2022-12-22T00:43:35.259Z,76.90
2022-12-22T00:46:22.550Z,76.98
2022-12-22T00:49:08.381Z,76.95
2022-12-22T00:51:53.892Z,76.99
2022-12-22T00:54:41.544Z,76.94
2022-12-22T00:57:38.596Z,76.69
2022-12-22T01:00:33.039Z,76.83
2022-12-22T01:03:18.624Z,76.63
2022-12-22T01:06:04.193Z,76.52
2022-12-22T01:08:50.068Z,76.39
2022-12-22T01:11:35.622Z,76.28
2022-12-22T01:14:21.039Z,76.51
2022-12-22T01:17:06.485Z,76.18
2022-12-22T01:19:51.772Z,76.17
2022-12-22T01:22:40.201Z,76.13
2022-12-22T01:25:35.304Z,76.09
2022-12-22T01:28:21.559Z,76.14
2022-12-22T01:31:07.436Z,76.10
2022-12-22T01:33:52.508Z,75.91
2022-12-22T01:36:38.120Z,76.07
2022-12-22T01:39:23.656Z,75.96
2022-12-22T01:42:09.065Z,75.81
2022-12-22T01:44:54.551Z,75.95
2022-12-22T01:47:46.113Z,76.10
2022-12-22T01:50:33.117Z,75.82
2022-12-22T01:53:20.297Z,75.79
2022-12-22T01:56:06.509Z,75.93
2022-12-22T01:58:57.893Z,75.76
2022-12-22T02:01:43.861Z,75.66
2022-12-22T02:04:29.443Z,75.80
2022-12-22T02:07:23.115Z,75.79
2022-12-22T02:10:32.964Z,75.81
2022-12-22T02:13:44.045Z,76.05
2022-12-22T02:16:53.282Z,75.81
2022-12-22T02:20:29.333Z,75.63
2022-12-22T02:23:36.722Z,75.48
2022-12-22T02:26:44.030Z,75.51
2022-12-22T02:29:31.999Z,75.52
2022-12-22T02:32:17.845Z,75.69
2022-12-22T02:35:03.318Z,75.77
2022-12-22T02:38:00.933Z,75.73
2022-12-22T02:41:11.362Z,75.76
2022-12-22T02:44:28.257Z,75.68
2022-12-22T02:47:34.073Z,75.72
2022-12-22T02:50:29.151Z,75.54
2022-12-22T02:53:15.720Z,75.50
2022-12-22T02:56:01.358Z,75.88
2022-12-22T02:58:50.269Z,75.89
2022-12-22T03:01:35.843Z,75.58
2022-12-22T03:04:21.270Z,75.86
2022-12-22T03:07:06.507Z,75.64
2022-12-22T03:09:52.032Z,75.73
2022-12-22T03:12:37.552Z,75.74
2022-12-22T03:15:23.105Z,75.73
2022-12-22T03:18:08.535Z,75.73
2022-12-22T03:20:53.989Z,75.68
2022-12-22T03:23:39.702Z,75.72
2022-12-22T03:26:06.456Z,75.53
2022-12-22T03:28:33.254Z,75.54
2022-12-22T03:31:05.240Z,75.61
2022-12-22T03:33:32.991Z,75.65
2022-12-22T03:36:00.288Z,75.64
2022-12-22T03:38:27.139Z,75.59
2022-12-22T03:40:53.940Z,75.82
2022-12-22T03:43:39.448Z,75.58
2022-12-22T03:46:25.307Z,75.82
2022-12-22T03:49:10.361Z,75.68
2022-12-22T03:51:46.087Z,75.49
2022-12-22T03:54:16.252Z,75.64
2022-12-22T03:56:43.215Z,75.64
2022-12-22T03:59:10.673Z,75.38
2022-12-22T04:01:41.341Z,75.56
2022-12-22T04:04:08.961Z,75.33
2022-12-22T04:06:35.763Z,75.48
2022-12-22T04:09:02.951Z,75.48
2022-12-22T04:11:48.483Z,75.50
2022-12-22T04:14:15.709Z,75.50
2022-12-22T04:16:42.602Z,75.29
2022-12-22T04:19:10.151Z,75.34
2022-12-22T04:21:37.640Z,75.46
2022-12-22T04:24:04.842Z,75.55
2022-12-22T04:26:32.088Z,75.46
2022-12-22T04:28:58.886Z,75.60
2022-12-22T04:31:25.727Z,75.61
2022-12-22T04:33:52.539Z,75.63
2022-12-22T04:36:19.548Z,75.62
2022-12-22T04:38:46.393Z,75.67
2022-12-22T04:41:13.197Z,75.64
2022-12-22T04:43:40.063Z,75.56
2022-12-22T04:46:07.051Z,75.55
2022-12-22T04:48:34.659Z,75.70
2022-12-22T04:51:01.746Z,75.56
2022-12-22T04:53:29.954Z,75.79
2022-12-22T04:55:59.944Z,75.61
2022-12-22T04:58:27.223Z,75.78
2022-12-22T05:00:54.446Z,75.80
2022-12-22T05:03:21.720Z,75.87
2022-12-22T05:05:48.630Z,75.79
2022-12-22T05:08:15.411Z,75.83
2022-12-22T05:10:42.224Z,75.84
2022-12-22T05:13:08.999Z,75.74
2022-12-22T05:15:36.803Z,75.99
2022-12-22T05:18:04.756Z,76.18
2022-12-22T05:20:32.060Z,76.03
2022-12-22T05:22:59.033Z,76.28
2022-12-22T05:25:29.838Z,76.50
2022-12-22T05:27:59.793Z,76.85
2022-12-22T05:30:26.683Z,76.84
2022-12-22T05:32:53.531Z,77.13
2022-12-22T05:35:20.269Z,77.09
2022-12-22T05:37:47.032Z,77.36
2022-12-22T05:40:13.988Z,77.42
2022-12-22T05:42:40.798Z,77.32
2022-12-22T05:45:21.103Z,77.77
2022-12-22T05:47:50.857Z,78.05
2022-12-22T05:50:21.327Z,78.27
2022-12-22T05:52:58.448Z,78.27
2022-12-22T05:55:25.231Z,78.15
2022-12-22T05:57:51.987Z,78.14
2022-12-22T06:00:19.350Z,78.34
2022-12-22T06:02:46.280Z,78.01
2022-12-22T06:05:15.341Z,78.32
2022-12-22T06:07:42.167Z,78.17
2022-12-22T06:10:12.623Z,78.24
2022-12-22T06:12:41.317Z,78.35
2022-12-22T06:15:10.167Z,78.44
2022-12-22T06:17:43.997Z,78.62
2022-12-22T06:20:13.030Z,78.32
2022-12-22T06:22:39.868Z,78.35
2022-12-22T06:25:06.877Z,78.48
2022-12-22T06:27:33.718Z,78.65
2022-12-22T06:30:00.546Z,78.76
2022-12-22T06:32:27.408Z,78.69
2022-12-22T06:34:54.249Z,78.66
2022-12-22T06:37:21.099Z,78.77
2022-12-22T06:39:47.839Z,78.95
2022-12-22T06:42:33.352Z,78.59
2022-12-22T06:45:00.166Z,78.71
2022-12-22T06:47:27.025Z,78.78
2022-12-22T06:49:53.820Z,78.94
2022-12-22T06:52:20.571Z,78.95
2022-12-22T06:54:47.332Z,79.07
2022-12-22T06:57:14.379Z,78.81
2022-12-22T06:59:41.134Z,78.89
2022-12-22T07:02:10.436Z,78.70
2022-12-22T07:04:37.648Z,78.55
2022-12-22T07:07:04.429Z,78.78
2022-12-22T07:09:31.199Z,78.75
2022-12-22T07:11:57.987Z,78.81
2022-12-22T07:14:24.777Z,78.72
2022-12-22T07:16:51.675Z,78.81
2022-12-22T07:19:18.598Z,78.73
2022-12-22T07:21:47.443Z,78.64
2022-12-22T07:24:14.229Z,78.46
2022-12-22T07:26:40.990Z,78.36
2022-12-22T07:29:07.927Z,78.29
2022-12-22T07:31:34.819Z,78.69
2022-12-22T07:34:01.710Z,78.40
2022-12-22T07:36:28.458Z,78.39
2022-12-22T07:38:55.402Z,78.52
2022-12-22T07:41:41.379Z,78.53
2022-12-22T07:44:08.351Z,78.63
2022-12-22T07:46:37.770Z,78.88
2022-12-22T07:49:24.378Z,78.77
2022-12-22T07:51:51.834Z,78.61
2022-12-22T07:54:19.265Z,79.01
2022-12-22T07:56:46.807Z,79.10
2022-12-22T07:59:14.516Z,79.22
2022-12-22T08:01:42.137Z,79.31
2022-12-22T08:04:10.457Z,79.46
2022-12-22T08:06:37.953Z,79.53
2022-12-22T08:09:06.285Z,79.60
2022-12-22T08:11:34.582Z,80.05
2022-12-22T08:14:02.293Z,79.97
2022-12-22T08:16:29.629Z,80.11
2022-12-22T08:18:57.396Z,80.27
2022-12-22T08:21:24.487Z,80.31
2022-12-22T08:23:51.923Z,80.35
2022-12-22T08:26:25.315Z,80.49
2022-12-22T08:29:15.923Z,80.43
2022-12-22T08:31:43.829Z,80.83
2022-12-22T08:34:14.396Z,80.96
2022-12-22T08:36:46.986Z,80.74
2022-12-22T08:39:15.070Z,80.80
2022-12-22T08:41:51.520Z,81.00
2022-12-22T08:44:24.829Z,80.94
2022-12-22T08:46:53.180Z,80.87
2022-12-22T08:49:20.536Z,81.07
2022-12-22T08:51:48.049Z,81.34
2022-12-22T08:54:15.768Z,81.10
2022-12-22T08:56:43.146Z,81.20
2022-12-22T08:59:10.501Z,81.25
2022-12-22T09:01:39.418Z,81.32
2022-12-22T09:04:09.893Z,81.09
2022-12-22T09:06:41.142Z,81.60
2022-12-22T09:09:10.647Z,81.40
2022-12-22T09:11:38.751Z,81.20
2022-12-22T09:14:06.353Z,81.09
2022-12-22T09:16:34.299Z,81.40
2022-12-22T09:19:01.892Z,81.45
2022-12-22T09:21:29.560Z,81.32
2022-12-22T09:23:57.213Z,81.20
2022-12-22T09:26:25.387Z,81.06
2022-12-22T09:28:52.863Z,80.97
2022-12-22T09:31:21.819Z,81.08
2022-12-22T09:33:49.236Z,80.82
2022-12-22T09:36:18.481Z,81.03
2022-12-22T09:38:45.447Z,80.96
2022-12-22T09:41:35.007Z,80.81
2022-12-22T09:44:13.230Z,80.82
2022-12-22T09:46:40.905Z,80.62
2022-12-22T09:49:08.633Z,80.86
2022-12-22T09:51:43.005Z,80.70
2022-12-22T09:54:12.400Z,80.81
2022-12-22T09:56:39.710Z,80.83
2022-12-22T09:59:20.845Z,80.74
2022-12-22T10:02:18.756Z,80.57
2022-12-22T10:05:28.694Z,80.55
2022-12-22T10:08:01.735Z,80.64
2022-12-22T10:10:31.257Z,80.56
2022-12-22T10:13:01.656Z,80.58
2022-12-22T10:15:38.480Z,80.72
2022-12-22T10:18:24.260Z,80.75
2022-12-22T10:21:08.482Z,80.55
2022-12-22T10:23:38.810Z,80.73
2022-12-22T10:26:28.828Z,80.81
2022-12-22T10:29:14.257Z,80.93
2022-12-22T10:32:02.408Z,80.73
2022-12-22T10:34:30.130Z,80.96
2022-12-22T10:37:01.551Z,81.01
2022-12-22T10:39:33.146Z,80.83
2022-12-22T10:42:08.164Z,81.05
2022-12-22T10:44:38.302Z,80.78
2022-12-22T10:47:21.242Z,80.73
2022-12-22T10:52:29.578Z,80.61
2022-12-22T10:55:19.219Z,80.68
2022-12-22T10:57:46.367Z,80.50
2022-12-22T11:00:28.667Z,80.52
2022-12-22T11:02:58.879Z,80.61
2022-12-22T11:05:26.588Z,80.61
2022-12-22T11:07:54.207Z,80.57
2022-12-22T11:10:33.822Z,80.63
2022-12-22T11:13:38.272Z,80.56
2022-12-22T11:16:11.984Z,80.40
2022-12-22T11:18:54.845Z,80.07
2022-12-22T11:21:27.794Z,80.24
2022-12-22T11:24:38.349Z,80.08
2022-12-22T11:27:27.959Z,80.08
2022-12-22T11:30:08.101Z,80.10
2022-12-22T11:32:34.921Z,80.20
2022-12-22T11:35:16.973Z,80.21
2022-12-22T11:38:02.288Z,80.10
2022-12-22T11:40:33.587Z,80.17
2022-12-22T11:43:18.067Z,79.91
2022-12-22T11:46:00.253Z,80.21
2022-12-22T11:48:46.312Z,79.85
2022-12-22T11:51:38.214Z,79.80
2022-12-22T11:54:25.333Z,80.08
2022-12-22T11:57:19.522Z,80.00
2022-12-22T12:00:01.215Z,80.03
2022-12-22T12:03:00.283Z,80.24
2022-12-22T12:05:48.494Z,80.27
2022-12-22T12:08:21.644Z,80.46
2022-12-22T12:10:54.879Z,80.50
2022-12-22T12:13:38.950Z,80.53
2022-12-22T12:16:05.715Z,80.48
2022-12-22T12:18:39.874Z,80.78
2022-12-22T12:21:18.678Z,80.90
2022-12-22T12:24:26.498Z,80.64
2022-12-22T12:27:18.309Z,80.90
2022-12-22T12:30:36.487Z,80.94
2022-12-22T12:33:01.838Z,80.89
2022-12-22T12:35:39.989Z,81.00
2022-12-22T12:39:06.426Z,80.93
2022-12-22T12:41:28.108Z,80.80
2022-12-22T12:43:56.416Z,80.87
2022-12-22T12:46:51.459Z,80.87
2022-12-22T12:49:36.721Z,80.62
2022-12-22T12:52:07.751Z,80.64
2022-12-22T12:54:47.952Z,80.56
2022-12-22T12:57:29.795Z,80.54
2022-12-22T12:59:59.671Z,80.44
2022-12-22T13:02:40.111Z,80.29
2022-12-22T13:05:13.042Z,80.49
2022-12-22T13:08:07.597Z,80.32
2022-12-22T13:10:36.019Z,80.50
2022-12-22T13:13:03.474Z,80.23
2022-12-22T13:15:38.368Z,80.53
2022-12-22T13:18:24.007Z,80.28
2022-12-22T13:21:18.608Z,80.50
2022-12-22T13:24:23.345Z,80.41
2022-12-22T13:26:47.457Z,80.33
2022-12-22T13:29:22.683Z,80.31
2022-12-22T13:32:04.663Z,80.48
2022-12-22T13:34:57.652Z,80.48
2022-12-22T13:37:28.495Z,80.50
2022-12-22T13:40:19.286Z,80.66
2022-12-22T13:42:49.894Z,80.50
2022-12-22T13:45:22.819Z,80.69
2022-12-22T13:47:50.574Z,80.50
2022-12-22T13:50:39.034Z,80.54
2022-12-22T13:53:09.251Z,80.58
2022-12-22T13:55:37.228Z,80.60
2022-12-22T13:58:21.378Z,80.47
2022-12-22T14:01:01.275Z,80.64
2022-12-22T14:03:58.367Z,80.27
2022-12-22T14:06:27.616Z,80.52
2022-12-22T14:08:55.098Z,80.35
2022-12-22T14:11:22.092Z,80.16
2022-12-22T14:13:49.117Z,80.18
2022-12-22T14:16:16.154Z,80.19
2022-12-22T14:18:43.406Z,80.43
2022-12-22T14:21:11.906Z,80.44
2022-12-22T14:23:41.787Z,80.32
2022-12-22T14:26:17.448Z,80.42
2022-12-22T14:28:50.954Z,80.42
2022-12-22T14:31:18.436Z,80.16
2022-12-22T14:33:56.906Z,80.32
2022-12-22T14:36:27.650Z,80.25
2022-12-22T14:39:03.736Z,80.31
2022-12-22T14:41:51.510Z,80.33
2022-12-22T14:44:22.601Z,80.52
2022-12-22T14:47:20.256Z,80.39
2022-12-22T14:49:50.925Z,80.52
2022-12-22T14:52:26.933Z,80.36
2022-12-22T14:54:55.506Z,80.63
2022-12-22T14:57:35.308Z,80.57
2022-12-22T15:00:22.390Z,80.50
2022-12-22T15:03:02.055Z,80.48
2022-12-22T15:05:38.415Z,80.61
2022-12-22T15:08:26.516Z,80.72
2022-12-22T15:10:53.356Z,80.67
2022-12-22T15:13:24.110Z,80.59
2022-12-22T15:15:52.286Z,80.67
2022-12-22T15:18:26.098Z,80.65
2022-12-22T15:20:53.787Z,80.80
2022-12-22T15:23:20.701Z,80.68
2022-12-22T15:25:47.855Z,80.67
2022-12-22T15:28:14.823Z,80.47
2022-12-22T15:30:42.235Z,80.63
2022-12-22T15:33:17.814Z,80.41
2022-12-22T15:35:45.763Z,80.41
2022-12-22T15:38:18.579Z,80.63
2022-12-22T15:40:45.619Z,80.48
2022-12-22T15:43:36.629Z,80.54
2022-12-22T15:45:59.847Z,80.65
2022-12-22T15:48:33.121Z,80.55
2022-12-22T15:51:02.128Z,80.58
2022-12-22T15:53:29.514Z,80.62
2022-12-22T15:55:58.714Z,80.60
2022-12-22T15:58:35.553Z,80.68
2022-12-22T16:01:02.463Z,80.67
2022-12-22T16:03:29.418Z,80.44
2022-12-22T16:05:56.626Z,80.68
2022-12-22T16:08:29.823Z,80.66
2022-12-22T16:10:56.849Z,80.68
2022-12-22T16:13:27.495Z,80.58
2022-12-22T16:15:57.198Z,80.57
2022-12-22T16:18:24.541Z,80.54
2022-12-22T16:20:52.118Z,80.53
2022-12-22T16:23:26.820Z,80.63
2022-12-22T16:26:00.979Z,80.50
2022-12-22T16:28:29.106Z,80.47
2022-12-22T16:30:55.909Z,80.41
2022-12-22T16:33:22.718Z,80.45
2022-12-22T16:35:50.496Z,80.66
2022-12-22T16:38:19.286Z,80.69
2022-12-22T16:40:49.763Z,80.67
2022-12-22T16:46:13.734Z,80.68
2022-12-22T16:48:44.514Z,80.59
2022-12-22T16:51:19.382Z,80.62
2022-12-22T16:53:46.320Z,80.61
2022-12-22T16:56:16.913Z,80.59
2022-12-22T16:58:44.468Z,80.59
2022-12-22T17:01:40.123Z,80.70
2022-12-22T17:04:14.862Z,80.76
2022-12-22T17:06:42.498Z,80.51
2022-12-22T17:09:19.500Z,80.73
2022-12-22T17:11:47.925Z,80.72
2022-12-22T17:14:33.306Z,80.66
2022-12-22T17:17:00.228Z,80.51
2022-12-22T17:19:27.188Z,80.57
2022-12-22T17:21:57.159Z,80.45
2022-12-22T17:24:28.116Z,80.74
2022-12-22T17:27:01.198Z,80.63
2022-12-22T17:29:28.513Z,80.42
2022-12-22T17:31:56.980Z,80.56
2022-12-22T17:34:24.167Z,80.57
2022-12-22T17:36:51.506Z,80.73
2022-12-22T17:39:23.377Z,80.58
2022-12-22T17:41:56.191Z,80.62
2022-12-22T17:44:24.912Z,80.48
2022-12-22T17:46:52.126Z,80.32
2022-12-22T17:49:22.443Z,80.53
2022-12-22T17:51:50.426Z,80.58
2022-12-22T17:54:22.787Z,80.57
2022-12-22T17:56:50.176Z,80.39
2022-12-22T17:59:17.022Z,80.48
2022-12-22T18:01:43.987Z,80.24
2022-12-22T18:04:11.037Z,80.30
2022-12-22T18:06:41.747Z,80.28
2022-12-22T18:09:18.651Z,80.37
2022-12-22T18:11:47.308Z,80.21
2022-12-22T18:14:15.517Z,80.22
2022-12-22T18:16:43.446Z,80.19
2022-12-22T18:19:10.661Z,80.39
2022-12-22T18:21:38.043Z,80.53
2022-12-22T18:24:06.356Z,80.50
2022-12-22T18:26:33.379Z,80.50
2022-12-22T18:29:01.936Z,80.43
2022-12-22T18:31:28.975Z,80.34
2022-12-22T18:33:55.834Z,80.42
2022-12-22T18:36:32.734Z,80.68
2022-12-22T18:39:01.715Z,80.36
2022-12-22T18:41:32.974Z,80.40
2022-12-22T18:43:59.819Z,80.41
2022-12-22T18:46:26.802Z,80.36
2022-12-22T18:48:57.797Z,80.57
2022-12-22T18:51:27.658Z,80.37
2022-12-22T18:53:55.172Z,80.33
2022-12-22T18:56:22.211Z,80.48
2022-12-22T18:58:49.794Z,80.44
2022-12-22T19:01:20.595Z,80.39
2022-12-22T19:03:48.282Z,80.35
2022-12-22T19:06:18.496Z,80.40
2022-12-22T19:08:47.490Z,80.65
2022-12-22T19:11:16.736Z,80.57
2022-12-22T19:13:50.084Z,80.69
2022-12-22T19:16:21.664Z,80.73
2022-12-22T19:18:48.675Z,80.49
2022-12-22T19:21:18.213Z,80.64
2022-12-22T19:23:45.336Z,80.59
2022-12-22T19:26:24.083Z,80.61
2022-12-22T19:28:53.902Z,80.31
2022-12-22T19:31:26.764Z,80.20
2022-12-22T19:33:55.510Z,80.14
2022-12-22T19:36:27.445Z,80.26
2022-12-22T19:39:04.102Z,80.10
2022-12-22T19:41:48.873Z,80.05
2022-12-22T19:44:20.002Z,80.02
2022-12-22T19:46:48.602Z,80.06
2022-12-22T19:49:18.467Z,79.89
2022-12-22T19:51:45.654Z,79.70
2022-12-22T19:54:12.517Z,79.79
2022-12-22T19:56:41.217Z,79.69
2022-12-22T19:59:26.930Z,79.62
2022-12-22T20:01:56.327Z,79.62
2022-12-22T20:04:23.350Z,79.66
2022-12-22T20:06:50.392Z,79.60
2022-12-22T20:09:17.727Z,79.42
2022-12-22T20:11:45.035Z,79.25
2022-12-22T20:14:18.852Z,79.61
2022-12-22T20:16:45.969Z,79.42
2022-12-22T20:19:14.387Z,79.42
2022-12-22T20:21:42.291Z,79.33
2022-12-22T20:24:20.299Z,79.33
2022-12-22T20:26:53.448Z,79.24
2022-12-22T20:29:21.285Z,79.16
2022-12-22T20:31:50.372Z,79.40
2022-12-22T20:34:17.255Z,79.29
2022-12-22T20:36:44.507Z,79.32
2022-12-22T20:39:14.441Z,79.30
2022-12-22T20:41:45.692Z,79.28
2022-12-22T20:44:15.852Z,79.31
2022-12-22T20:46:42.873Z,79.10
2022-12-22T20:49:15.257Z,79.22
2022-12-22T20:51:43.479Z,79.28
2022-12-22T20:54:14.404Z,79.22
2022-12-22T20:56:43.733Z,79.13
2022-12-22T20:59:19.327Z,79.21
2022-12-22T21:01:49.237Z,79.44
2022-12-22T21:04:17.411Z,79.28
2022-12-22T21:06:51.027Z,79.25
2022-12-22T21:09:18.502Z,79.21
2022-12-22T21:11:45.642Z,79.18
2022-12-22T21:14:13.814Z,79.19
2022-12-22T21:16:42.331Z,79.22
2022-12-22T21:19:16.240Z,78.98
2022-12-22T21:21:43.798Z,79.04
2022-12-22T21:24:10.768Z,78.94
2022-12-22T21:26:43.317Z,79.18
2022-12-22T21:29:17.057Z,79.23
2022-12-22T21:31:45.129Z,79.22
2022-12-22T21:34:12.217Z,79.10
2022-12-22T21:36:40.579Z,79.02
2022-12-22T21:39:20.686Z,79.03
2022-12-22T21:42:05.031Z,79.21
2022-12-22T21:44:34.481Z,79.09
2022-12-22T21:47:02.150Z,79.14
2022-12-22T21:49:31.575Z,79.05
2022-12-22T21:51:58.788Z,79.37
2022-12-22T21:54:26.851Z,79.22
2022-12-22T21:56:54.427Z,79.36
2022-12-22T21:59:22.603Z,79.41
2022-12-22T22:01:53.702Z,79.21
2022-12-22T22:04:21.421Z,79.30
2022-12-22T22:06:48.458Z,79.37
2022-12-22T22:09:15.341Z,79.52
2022-12-22T22:12:01.694Z,79.42
2022-12-22T22:14:29.173Z,79.44
2022-12-22T22:16:56.217Z,79.56
2022-12-22T22:19:23.107Z,79.50
2022-12-22T22:21:50.005Z,79.69
2022-12-22T22:24:16.806Z,79.51
2022-12-22T22:26:46.129Z,79.56
2022-12-22T22:29:14.004Z,79.83
2022-12-22T22:31:41.395Z,79.80
2022-12-22T22:34:09.389Z,79.70
2022-12-22T22:36:36.287Z,79.71
2022-12-22T22:39:03.596Z,79.74
2022-12-22T22:41:35.206Z,79.79
2022-12-22T22:44:04.735Z,79.79
2022-12-22T22:46:31.656Z,79.73
2022-12-22T22:48:58.874Z,79.82
2022-12-22T22:51:25.962Z,79.85
2022-12-22T22:53:52.855Z,79.78
2022-12-22T22:56:19.985Z,79.93
2022-12-22T22:58:46.861Z,79.85
2022-12-22T23:01:14.128Z,79.94
2022-12-22T23:03:43.440Z,79.94
2022-12-22T23:06:13.243Z,80.17
2022-12-22T23:08:40.232Z,80.10
2022-12-22T23:11:13.547Z,80.33
2022-12-22T23:13:41.111Z,80.41
2022-12-22T23:16:08.340Z,80.30
2022-12-22T23:18:35.333Z,80.47
2022-12-22T23:21:05.744Z,80.42
2022-12-22T23:23:34.336Z,80.73
2022-12-22T23:26:01.472Z,80.75
2022-12-22T23:28:28.335Z,80.50
2022-12-22T23:30:55.267Z,80.61
2022-12-22T23:33:22.214Z,80.53
2022-12-22T23:35:50.640Z,80.65
2022-12-22T23:38:19.172Z,80.59
2022-12-22T23:40:54.876Z,80.46
2022-12-22T23:43:22.112Z,80.31
2022-12-22T23:45:50.400Z,80.59
2022-12-22T23:48:17.326Z,80.62
2022-12-22T23:50:48.406Z,80.48
2022-12-22T23:53:16.639Z,80.48
2022-12-22T23:55:48.034Z,80.34
2022-12-22T23:58:16.460Z,80.55
